Aérodrome :
LOGIN :

S'inscrire | Disclaimer

   EN    FR    IT 

 










Légende :    VFR   VFR Marginal   IFR   IFR Intensif   IFR Très Intensif
Visi : 
Plafond : 
>= 8 km
>= 3000ft
5 à 8 km
1000 à 3000 ft
1500m à 5 km
500 à 1000 ft
800 à 1500m
200 à 500 ft
< 800m
< 200 ft
Symboles :   Orages  Brouillard  Fortes neiges  Fortes précipitations  Vent > 20 kt
SIGMETs :   Divers  Orages  Givrage  Turbulence  Onde Orograph.  Cendres Volcan.






- Altitude de l'aérodrome : 1000 ft
- Code IATA : PEV


LHPP - Pécs Pogany

DERNIER METAR :
  • 131515Z AUTO 15006KT 110V210 CAVOK 35/18 Q1010

METARs EXPIRÉS :
  • 131445Z AUTO 14006KT 100V190 CAVOK 35/19 Q1010
  • 131415Z AUTO 15006KT 110V190 CAVOK 34/20 Q1010
  • 131345Z AUTO 14006KT 070V200 CAVOK 36/19 Q1010
  • 131315Z AUTO VRB04KT CAVOK 36/17 Q1011
  • 131245Z AUTO VRB04KT CAVOK 36/17 Q1011
  • 131215Z AUTO VRB05KT CAVOK 36/15 Q1011
  • 131145Z AUTO VRB04KT CAVOK 35/16 Q1011
  • 131115Z AUTO VRB04KT CAVOK 35/18 Q1011
  • 131045Z AUTO VRB04KT CAVOK 34/18 Q1011

TAF TAF LHPP
Valide du 13 à 15h jusqu'au 14 à 00h UTC


131415Z 1315/1324 VRB03KT CAVOK
PROB30
TEMPO 1315/1324 VRB20G35KT 4000 TSRA SHRA SCT060CB



MET'MAP, la Météo Aéronautique d'un coup d'oeil ! - Copyright ORBIFLY Décembre 2007 - Disclaimer

ORBIFLY MET'MAP TEAM :

Programmation & Développement : Alexandra Zaïnal
Sur une idée originale de : Baudouin d'Aumeries
Soutien technique & logistique : Manuel Goepfert
Assistance : Marc-Olivier Méhu




SOURCES & CREDITS :

   NOAA